createdAt,value
2019-01-12T00:01:20.641Z,5.30
2019-01-12T00:04:06.189Z,5.33
2019-01-12T00:06:51.798Z,8.18
2019-01-12T00:09:37.187Z,5.37
2019-01-12T00:12:22.662Z,5.70
2019-01-12T00:15:08.630Z,6.65
2019-01-12T00:17:54.569Z,6.10
2019-01-12T00:20:39.959Z,6.25
2019-01-12T00:23:25.370Z,5.87
2019-01-12T00:26:10.786Z,5.90
2019-01-12T00:28:56.936Z,5.55
2019-01-12T00:31:42.767Z,5.55
2019-01-12T00:34:28.549Z,6.35
2019-01-12T00:37:14.197Z,5.40
2019-01-12T00:40:00.299Z,4.70
2019-01-12T00:42:46.351Z,5.08
2019-01-12T00:45:32.329Z,4.28
2019-01-12T00:48:17.902Z,5.80
2019-01-12T00:51:03.546Z,5.22
2019-01-12T00:53:49.331Z,4.70
2019-01-12T00:56:35.572Z,4.67
2019-01-12T00:59:21.764Z,5.47
2019-01-12T01:02:07.885Z,5.87
2019-01-12T01:04:53.345Z,6.05
2019-01-12T01:07:39.414Z,5.90
2019-01-12T01:10:25.239Z,6.33
2019-01-12T01:13:10.807Z,5.72
2019-01-12T01:15:56.819Z,5.22
2019-01-12T01:18:42.031Z,4.70
2019-01-12T01:21:27.860Z,4.72
2019-01-12T01:24:13.654Z,4.95
2019-01-12T01:26:59.027Z,5.05
2019-01-12T01:29:45.338Z,5.60
2019-01-12T01:32:31.237Z,4.55
2019-01-12T01:35:17.888Z,4.35
2019-01-12T01:38:03.921Z,4.53
2019-01-12T01:40:49.348Z,4.35
2019-01-12T01:43:35.124Z,4.90
2019-01-12T01:46:21.077Z,5.70
2019-01-12T01:49:06.764Z,4.40
2019-01-12T01:51:52.748Z,4.95
2019-01-12T01:54:38.198Z,5.22
2019-01-12T01:57:23.986Z,4.45
2019-01-12T02:00:14.933Z,4.90
2019-01-12T02:03:00.347Z,4.50
2019-01-12T02:05:45.962Z,4.40
2019-01-12T02:08:31.547Z,5.22
2019-01-12T02:11:17.157Z,4.33
2019-01-12T02:14:03.756Z,4.92
2019-01-12T02:16:49.245Z,3.98
2019-01-12T02:19:34.560Z,3.27
2019-01-12T02:22:20.183Z,3.47
2019-01-12T02:25:06.505Z,4.70
2019-01-12T02:27:52.603Z,4.35
2019-01-12T02:30:38.174Z,4.53
2019-01-12T02:33:23.748Z,3.72
2019-01-12T02:36:09.483Z,3.42
2019-01-12T02:38:54.842Z,3.40
2019-01-12T02:41:40.279Z,3.55
2019-01-12T02:44:26.300Z,3.50
2019-01-12T02:47:11.809Z,3.62
2019-01-12T02:49:57.890Z,5.10
2019-01-12T02:52:43.198Z,3.70
2019-01-12T02:55:29.030Z,4.35
2019-01-12T02:58:14.878Z,4.05
2019-01-12T03:01:00.384Z,3.62
2019-01-12T03:03:46.490Z,3.55
2019-01-12T03:06:32.663Z,3.75
2019-01-12T03:09:18.659Z,4.17
2019-01-12T03:12:05.023Z,4.03
2019-01-12T03:14:50.597Z,3.75
2019-01-12T03:17:36.779Z,4.60
2019-01-12T03:20:22.170Z,3.22
2019-01-12T03:23:07.840Z,3.87
2019-01-12T03:25:53.849Z,4.62
2019-01-12T03:28:39.509Z,5.17
2019-01-12T03:31:24.919Z,3.45
2019-01-12T03:34:10.921Z,3.37
2019-01-12T03:36:56.459Z,2.92
2019-01-12T03:39:42.219Z,2.58
2019-01-12T03:42:27.666Z,3.17
2019-01-12T03:45:14.636Z,3.80
2019-01-12T03:47:59.789Z,3.58
2019-01-12T03:50:45.481Z,3.40
2019-01-12T03:53:31.398Z,2.87
2019-01-12T03:56:16.741Z,2.67
2019-01-12T03:59:02.555Z,2.12
2019-01-12T04:01:49.075Z,2.62
2019-01-12T04:04:34.822Z,2.72
2019-01-12T04:07:20.279Z,2.58
2019-01-12T04:10:06.456Z,3.08
2019-01-12T04:12:53.502Z,2.27
2019-01-12T04:15:39.222Z,2.05
2019-01-12T04:18:24.931Z,1.90
2019-01-12T04:21:11.032Z,1.87
2019-01-12T04:23:56.869Z,1.65
2019-01-12T04:26:42.704Z,2.10
2019-01-12T04:29:28.272Z,1.65
2019-01-12T04:32:14.497Z,1.35
2019-01-12T04:35:00.476Z,1.15
2019-01-12T04:37:46.330Z,1.12
2019-01-12T04:40:32.116Z,0.70
2019-01-12T04:43:17.825Z,1.30
2019-01-12T04:46:03.563Z,0.98
2019-01-12T04:48:49.508Z,0.90
2019-01-12T04:51:35.429Z,0.90
2019-01-12T04:54:21.009Z,1.20
2019-01-12T04:57:06.516Z,1.75
2019-01-12T04:59:52.560Z,1.40
2019-01-12T05:02:38.204Z,2.10
2019-01-12T05:05:24.682Z,1.70
2019-01-12T05:08:10.496Z,1.75
2019-01-12T05:10:55.978Z,1.50
2019-01-12T05:13:41.519Z,2.05
2019-01-12T05:16:27.402Z,1.67
2019-01-12T05:19:13.131Z,1.47
2019-01-12T05:21:58.931Z,1.42
2019-01-12T05:24:44.583Z,1.75
2019-01-12T05:27:30.403Z,1.90
2019-01-12T05:30:22.446Z,1.35
2019-01-12T05:33:08.583Z,1.70
2019-01-12T05:35:54.674Z,1.07
2019-01-12T05:38:40.175Z,1.15
2019-01-12T05:41:25.594Z,1.87
2019-01-12T05:44:11.294Z,1.50
2019-01-12T05:46:57.145Z,2.20
2019-01-12T05:49:42.798Z,1.90
2019-01-12T05:52:28.871Z,2.47
2019-01-12T05:55:14.614Z,2.10
2019-01-12T05:58:00.395Z,1.40
2019-01-12T06:00:46.326Z,1.50
2019-01-12T06:03:31.910Z,1.60
2019-01-12T06:06:17.607Z,2.85
2019-01-12T06:09:06.147Z,2.75
2019-01-12T06:11:51.612Z,3.08
2019-01-12T06:14:37.188Z,3.20
2019-01-12T06:17:22.772Z,2.85
2019-01-12T06:20:10.424Z,3.55
2019-01-12T06:22:56.324Z,3.10
2019-01-12T06:25:41.907Z,2.90
2019-01-12T06:28:27.333Z,2.70
2019-01-12T06:31:12.974Z,2.37
2019-01-12T06:33:59.067Z,2.27
2019-01-12T06:36:44.759Z,2.58
2019-01-12T06:39:30.744Z,1.90
2019-01-12T06:42:16.743Z,2.95
2019-01-12T06:45:03.251Z,2.00
2019-01-12T06:47:48.939Z,2.72
2019-01-12T06:50:35.224Z,1.60
2019-01-12T06:53:20.575Z,1.90
2019-01-12T06:56:10.795Z,1.52
2019-01-12T06:58:54.187Z,1.27
2019-01-12T07:01:40.218Z,1.55
2019-01-12T07:04:26.097Z,1.95
2019-01-12T07:07:11.619Z,1.70
2019-01-12T07:09:57.320Z,1.55
2019-01-12T07:12:44.092Z,1.72
2019-01-12T07:15:29.941Z,2.10
2019-01-12T07:18:15.902Z,2.20
2019-01-12T07:21:03.338Z,1.70
2019-01-12T07:23:49.067Z,2.40
2019-01-12T07:26:35.922Z,2.00
2019-01-12T07:29:21.654Z,2.08
2019-01-12T07:32:07.488Z,1.65
2019-01-12T07:34:54.256Z,2.10
2019-01-12T07:37:40.289Z,1.50
2019-01-12T07:40:25.630Z,1.62
2019-01-12T07:43:11.337Z,1.95
2019-01-12T07:45:58.067Z,1.80
2019-01-12T07:48:43.904Z,2.05
2019-01-12T07:51:32.978Z,2.33
2019-01-12T07:54:18.873Z,2.12
2019-01-12T07:57:04.779Z,1.70
2019-01-12T07:59:50.803Z,2.67
2019-01-12T08:02:36.106Z,1.82
2019-01-12T08:05:21.867Z,1.90
2019-01-12T08:08:07.424Z,1.67
2019-01-12T08:10:53.274Z,1.20
2019-01-12T08:13:39.298Z,1.75
2019-01-12T08:16:24.993Z,1.77
2019-01-12T08:19:10.582Z,1.12
2019-01-12T08:21:56.761Z,2.17
2019-01-12T08:24:42.310Z,1.60
2019-01-12T08:27:27.899Z,1.55
2019-01-12T08:30:15.675Z,2.55
2019-01-12T08:33:01.282Z,1.98
2019-01-12T08:35:46.892Z,2.17
2019-01-12T08:38:32.612Z,2.50
2019-01-12T08:41:18.240Z,2.58
2019-01-12T08:44:04.086Z,2.37
2019-01-12T08:46:50.175Z,1.92
2019-01-12T08:49:35.934Z,1.87
2019-01-12T08:52:21.974Z,2.52
2019-01-12T08:55:09.336Z,2.55
2019-01-12T08:57:55.492Z,2.30
2019-01-12T09:00:41.148Z,2.40
2019-01-12T09:03:27.591Z,2.85
2019-01-12T09:06:13.183Z,2.52
2019-01-12T09:08:59.008Z,2.33
2019-01-12T09:11:44.867Z,2.70
2019-01-12T09:14:31.567Z,2.35
2019-01-12T09:17:17.627Z,2.27
2019-01-12T09:20:05.433Z,2.10
2019-01-12T09:22:51.134Z,2.37
2019-01-12T09:25:36.904Z,2.87
2019-01-12T09:28:22.666Z,2.77
2019-01-12T09:31:08.384Z,2.10
2019-01-12T09:33:54.565Z,2.42
2019-01-12T09:36:40.717Z,2.47
2019-01-12T09:39:26.514Z,2.77
2019-01-12T09:42:12.503Z,2.40
2019-01-12T09:44:58.246Z,3.08
2019-01-12T09:47:44.322Z,2.42
2019-01-12T09:50:30.284Z,2.72
2019-01-12T09:53:16.103Z,2.70
2019-01-12T09:56:01.688Z,3.22
2019-01-12T09:58:47.741Z,2.52
2019-01-12T10:01:33.700Z,2.77
2019-01-12T10:04:22.131Z,2.55
2019-01-12T10:07:07.831Z,3.33
2019-01-12T10:09:53.648Z,3.05
2019-01-12T10:12:39.850Z,4.05
2019-01-12T10:15:25.607Z,3.83
2019-01-12T10:18:11.268Z,3.12
2019-01-12T10:20:57.480Z,3.67
2019-01-12T10:23:43.056Z,4.92
2019-01-12T10:26:28.783Z,3.83
2019-01-12T10:29:14.942Z,3.80
2019-01-12T10:32:00.868Z,4.00
2019-01-12T10:34:46.884Z,4.45
2019-01-12T10:37:32.106Z,4.60
2019-01-12T10:40:18.236Z,6.80
2019-01-12T10:43:04.228Z,4.80
2019-01-12T10:46:04.232Z,7.22
2019-01-12T10:48:50.179Z,8.48
2019-01-12T10:51:36.034Z,5.28
2019-01-12T10:54:21.825Z,6.15
2019-01-12T10:57:07.950Z,5.20
2019-01-12T10:59:53.479Z,5.78
2019-01-12T11:02:39.484Z,6.47
2019-01-12T11:05:25.247Z,5.92
2019-01-12T11:08:10.891Z,5.83
2019-01-12T11:10:56.590Z,6.40
2019-01-12T11:13:42.088Z,6.05
2019-01-12T11:16:27.864Z,6.72
2019-01-12T11:19:13.883Z,5.95
2019-01-12T11:21:59.804Z,5.55
2019-01-12T11:24:46.005Z,6.47
2019-01-12T11:27:31.583Z,6.55
2019-01-12T11:30:18.394Z,7.17
2019-01-12T11:33:04.911Z,8.43
2019-01-12T11:35:51.195Z,8.73
2019-01-12T11:38:36.877Z,7.58
2019-01-12T11:41:22.556Z,8.60
2019-01-12T11:44:08.378Z,8.43
2019-01-12T11:46:54.453Z,10.20
2019-01-12T11:49:40.442Z,9.38
2019-01-12T11:52:26.055Z,9.33
2019-01-12T11:55:12.314Z,8.50
2019-01-12T11:57:58.326Z,8.75
2019-01-12T12:00:43.902Z,9.30
2019-01-12T12:03:30.337Z,9.30
2019-01-12T12:06:15.821Z,13.38
2019-01-12T12:09:43.249Z,10.63
2019-01-12T12:12:28.880Z,9.40
2019-01-12T12:15:14.706Z,9.23
2019-01-12T12:18:00.314Z,8.80
2019-01-12T12:20:45.654Z,7.90
2019-01-12T12:23:32.179Z,9.08
2019-01-12T12:26:17.975Z,7.58
2019-01-12T12:29:03.750Z,9.03
2019-01-12T12:31:49.583Z,8.73
2019-01-12T12:34:35.500Z,8.40
2019-01-12T12:37:21.629Z,8.25
2019-01-12T12:40:08.451Z,8.35
2019-01-12T12:42:55.332Z,8.00
2019-01-12T12:45:41.443Z,7.03
2019-01-12T12:50:50.082Z,7.08
2019-01-12T12:53:35.724Z,5.62
2019-01-12T12:56:21.479Z,7.28
2019-01-12T12:59:06.787Z,7.05
2019-01-12T13:01:52.192Z,7.83
2019-01-12T13:04:38.160Z,7.28
2019-01-12T13:07:24.227Z,6.90
2019-01-12T13:10:18.347Z,6.58
2019-01-12T13:13:04.794Z,6.85
2019-01-12T13:15:50.444Z,6.53
2019-01-12T13:18:37.234Z,6.85
2019-01-12T13:21:23.189Z,7.12
2019-01-12T13:24:09.339Z,7.53
2019-01-12T13:26:55.130Z,6.58
2019-01-12T13:29:40.818Z,5.80
2019-01-12T13:32:29.604Z,5.83
2019-01-12T13:35:15.523Z,4.85
2019-01-12T13:38:01.241Z,4.65
2019-01-12T13:40:47.338Z,4.53
2019-01-12T13:43:32.854Z,4.70
2019-01-12T13:46:18.812Z,3.35
2019-01-12T13:49:04.936Z,3.30
2019-01-12T13:51:51.294Z,3.45
2019-01-12T13:54:37.145Z,3.20
2019-01-12T13:57:22.807Z,2.80
2019-01-12T14:00:12.936Z,3.00
2019-01-12T14:02:58.657Z,2.65
2019-01-12T14:05:45.133Z,3.17
2019-01-12T14:08:31.503Z,2.45
2019-01-12T14:11:17.833Z,2.40
2019-01-12T14:14:03.850Z,2.27
2019-01-12T14:16:49.390Z,2.62
2019-01-12T14:19:35.192Z,2.70
2019-01-12T14:22:21.438Z,2.90
2019-01-12T14:25:06.964Z,2.65
2019-01-12T14:27:54.891Z,2.42
2019-01-12T14:30:40.658Z,3.02
2019-01-12T14:33:26.570Z,2.95
2019-01-12T14:36:13.431Z,3.08
2019-01-12T14:38:59.023Z,3.02
2019-01-12T14:41:44.710Z,3.67
2019-01-12T14:44:31.026Z,2.95
2019-01-12T14:47:17.435Z,2.70
2019-01-12T14:50:04.413Z,4.03
2019-01-12T14:52:49.912Z,2.98
2019-01-12T14:55:35.821Z,3.12
2019-01-12T14:58:21.578Z,3.92
2019-01-12T15:01:06.947Z,2.70
2019-01-12T15:03:52.761Z,2.90
2019-01-12T15:06:38.827Z,3.33
2019-01-12T15:09:24.282Z,2.90
2019-01-12T15:12:10.443Z,3.30
2019-01-12T15:14:59.931Z,3.50
2019-01-12T15:17:46.039Z,2.67
2019-01-12T15:20:31.547Z,3.95
2019-01-12T15:23:17.069Z,2.87
2019-01-12T15:26:03.319Z,2.77
2019-01-12T15:28:49.039Z,3.62
2019-01-12T15:31:35.108Z,3.45
2019-01-12T15:34:20.949Z,2.90
2019-01-12T15:37:06.307Z,3.40
2019-01-12T15:39:52.175Z,3.80
2019-01-12T15:42:37.614Z,3.00
2019-01-12T15:45:23.617Z,3.30
2019-01-12T15:48:10.058Z,3.33
2019-01-12T15:50:55.570Z,3.05
2019-01-12T15:53:40.940Z,3.10
2019-01-12T15:56:26.618Z,2.77
2019-01-12T15:59:12.454Z,2.17
2019-01-12T16:01:58.142Z,2.62
2019-01-12T16:04:44.085Z,2.45
2019-01-12T16:07:29.985Z,2.60
2019-01-12T16:10:15.766Z,3.00
2019-01-12T16:13:02.563Z,2.65
2019-01-12T16:15:48.471Z,3.12
2019-01-12T16:18:34.641Z,3.98
2019-01-12T16:21:20.354Z,3.05
2019-01-12T16:24:05.782Z,3.17
2019-01-12T16:26:52.026Z,2.55
2019-01-12T16:29:37.714Z,4.25
2019-01-12T16:32:23.645Z,4.10
2019-01-12T16:35:11.219Z,3.90
2019-01-12T16:37:57.172Z,3.12
2019-01-12T16:40:42.788Z,3.10
2019-01-12T16:43:28.536Z,3.40
2019-01-12T16:46:14.214Z,3.15
2019-01-12T16:49:00.066Z,3.42
2019-01-12T16:51:45.503Z,2.75
2019-01-12T16:54:31.330Z,2.75
2019-01-12T16:57:16.970Z,2.47
2019-01-12T17:00:05.590Z,2.70
2019-01-12T17:02:51.600Z,3.52
2019-01-12T17:05:37.889Z,2.83
2019-01-12T17:08:23.677Z,3.35
2019-01-12T17:11:09.772Z,4.10
2019-01-12T17:13:55.723Z,4.00
2019-01-12T17:16:41.550Z,4.47
2019-01-12T17:19:27.443Z,3.75
2019-01-12T17:22:12.731Z,5.22
2019-01-12T17:24:58.225Z,6.35
2019-01-12T17:27:43.738Z,3.15
2019-01-12T17:30:29.461Z,3.22
2019-01-12T17:33:15.198Z,3.67
2019-01-12T17:36:01.029Z,4.00
2019-01-12T17:38:47.351Z,3.02
2019-01-12T17:41:32.758Z,3.95
2019-01-12T17:44:18.459Z,4.28
2019-01-12T17:47:04.635Z,3.80
2019-01-12T17:49:50.045Z,4.87
2019-01-12T17:52:36.412Z,4.78
2019-01-12T17:55:23.891Z,4.33
2019-01-12T17:58:09.715Z,4.20
2019-01-12T18:00:55.072Z,5.30
2019-01-12T18:03:41.061Z,3.80
2019-01-12T18:06:27.180Z,3.80
2019-01-12T18:09:13.449Z,2.87
2019-01-12T18:11:58.907Z,3.10
2019-01-12T18:14:44.951Z,3.22
2019-01-12T18:17:31.749Z,3.08
2019-01-12T18:20:17.559Z,2.85
2019-01-12T18:23:04.637Z,2.90
2019-01-12T18:25:49.942Z,3.08
2019-01-12T18:28:35.672Z,2.80
2019-01-12T18:31:22.273Z,2.67
2019-01-12T18:34:08.004Z,2.80
2019-01-12T18:36:53.798Z,4.72
2019-01-12T18:39:39.444Z,3.45
2019-01-12T18:42:25.372Z,4.53
2019-01-12T18:45:13.360Z,3.02
2019-01-12T18:47:59.474Z,4.25
2019-01-12T18:50:45.590Z,3.50
2019-01-12T18:53:31.199Z,4.40
2019-01-12T18:56:16.980Z,5.85
2019-01-12T18:59:02.479Z,3.83
2019-01-12T19:01:48.332Z,4.75
2019-01-12T19:04:34.534Z,4.22
2019-01-12T19:07:26.082Z,3.65
2019-01-12T19:10:12.058Z,4.25
2019-01-12T19:12:58.064Z,4.10
2019-01-12T19:15:44.214Z,3.45
2019-01-12T19:18:30.131Z,4.20
2019-01-12T19:21:15.602Z,4.00
2019-01-12T19:24:00.906Z,3.45
2019-01-12T19:26:46.222Z,5.30
2019-01-12T19:29:31.575Z,3.95
2019-01-12T19:32:17.188Z,3.67
2019-01-12T19:35:03.205Z,3.33
2019-01-12T19:37:49.196Z,3.85
2019-01-12T19:40:35.524Z,3.25
2019-01-12T19:43:21.612Z,3.00
2019-01-12T19:46:07.526Z,3.33
2019-01-12T19:48:53.881Z,3.80
2019-01-12T19:51:39.586Z,3.45
2019-01-12T19:54:25.604Z,3.35
2019-01-12T19:57:10.894Z,3.20
2019-01-12T19:59:58.362Z,3.62
2019-01-12T20:02:45.566Z,3.30
2019-01-12T20:05:31.291Z,3.22
2019-01-12T20:08:16.719Z,2.98
2019-01-12T20:11:02.643Z,2.90
2019-01-12T20:13:48.426Z,5.12
2019-01-12T20:16:34.387Z,3.85
2019-01-12T20:19:19.719Z,2.67
2019-01-12T20:22:05.874Z,3.08
2019-01-12T20:24:51.629Z,3.20
2019-01-12T20:27:37.653Z,3.67
2019-01-12T20:31:10.385Z,2.75
2019-01-12T20:34:11.127Z,2.70
2019-01-12T20:37:28.435Z,2.08
2019-01-12T20:40:54.791Z,2.52
2019-01-12T20:44:18.385Z,2.25
2019-01-12T20:47:37.727Z,5.10
2019-01-12T20:51:06.217Z,2.37
2019-01-12T20:54:19.595Z,2.72
2019-01-12T20:57:26.154Z,2.05
2019-01-12T21:00:30.259Z,1.77
2019-01-12T21:03:36.495Z,1.62
2019-01-12T21:06:33.198Z,1.60
2019-01-12T21:09:55.302Z,2.27
2019-01-12T21:13:12.427Z,2.37
2019-01-12T21:16:02.691Z,2.25
2019-01-12T21:18:48.374Z,1.90
2019-01-12T21:21:34.389Z,2.10
2019-01-12T21:24:20.083Z,1.80
2019-01-12T21:27:07.817Z,1.67
2019-01-12T21:29:53.235Z,1.85
2019-01-12T21:32:39.087Z,2.00
2019-01-12T21:35:24.740Z,1.57
2019-01-12T21:38:10.135Z,2.55
2019-01-12T21:40:56.315Z,3.65
2019-01-12T21:43:42.235Z,2.87
2019-01-12T21:46:28.123Z,3.10
2019-01-12T21:49:14.214Z,2.37
2019-01-12T21:52:00.160Z,2.30
2019-01-12T21:54:45.894Z,2.22
2019-01-12T21:57:32.294Z,2.08
2019-01-12T22:00:18.109Z,2.20
2019-01-12T22:03:04.861Z,1.52
2019-01-12T22:05:50.351Z,1.45
2019-01-12T22:08:36.030Z,1.95
2019-01-12T22:11:22.158Z,1.17
2019-01-12T22:14:07.954Z,1.62
2019-01-12T22:16:53.883Z,1.65
2019-01-12T22:19:39.596Z,1.30
2019-01-12T22:22:25.210Z,2.47
2019-01-12T22:25:11.171Z,1.92
2019-01-12T22:27:56.800Z,1.75
2019-01-12T22:30:42.261Z,1.72
2019-01-12T22:33:28.044Z,2.35
2019-01-12T22:36:13.672Z,1.50
2019-01-12T22:38:59.701Z,1.30
2019-01-12T22:41:45.074Z,1.02
2019-01-12T22:44:31.012Z,1.42
2019-01-12T22:47:16.597Z,1.25
2019-01-12T22:50:03.043Z,1.55
2019-01-12T22:52:48.723Z,1.22
2019-01-12T22:55:34.296Z,1.70
2019-01-12T22:58:19.627Z,1.67
2019-01-12T23:01:34.059Z,1.45
2019-01-12T23:04:24.755Z,2.33
2019-01-12T23:07:11.525Z,2.60
2019-01-12T23:09:57.931Z,2.20
2019-01-12T23:12:43.864Z,2.40
2019-01-12T23:15:29.613Z,2.85
2019-01-12T23:18:15.344Z,2.83
2019-01-12T23:21:01.095Z,2.60
2019-01-12T23:23:47.115Z,2.72
2019-01-12T23:26:33.140Z,2.98
2019-01-12T23:29:19.128Z,3.65
2019-01-12T23:32:05.032Z,3.72
2019-01-12T23:34:50.792Z,4.42
2019-01-12T23:37:36.602Z,3.60
2019-01-12T23:40:22.251Z,3.12
2019-01-12T23:43:08.024Z,3.72
2019-01-12T23:45:54.001Z,3.02
2019-01-12T23:48:39.867Z,3.60
2019-01-12T23:51:25.589Z,2.87
2019-01-12T23:54:11.554Z,4.05
2019-01-12T23:56:57.213Z,3.33
2019-01-12T23:59:43.180Z,3.33
